Terminal Aerodrome Forecast
Issued by NWS

Home | Current Version | Previous Version | Text Only | Print | Product List | Glossary On
Versions: 1 2 3 4 5 6 7 8 9 10 11 12 13 14 15 16 17 18 19
317
FTUS42 KTAE 090532
TAFECP
TAF
KECP 090532Z 0906/1006 34012G18KT P6SM BKN250
     FM091300 36010G20KT P6SM BKN250
     FM092300 01010KT P6SM FEW250=

USA.gov is the U.S. government's official web portal to all federal, state and local government web resources and services.